createdAt,value
2022-11-15T06:44:56.092Z,4.75
2022-11-15T06:45:55.267Z,4.87
2022-11-15T06:46:55.248Z,4.94
2022-11-15T06:47:55.231Z,4.9
2022-11-15T06:48:55.228Z,4.9
2022-11-15T06:49:55.441Z,4.89
2022-11-15T06:50:55.468Z,4.9
2022-11-15T06:51:55.304Z,4.87
2022-11-15T06:52:55.513Z,4.89
2022-11-15T06:53:55.262Z,4.97
2022-11-15T06:54:55.277Z,4.92
2022-11-15T06:56:00.046Z,4.89
2022-11-15T06:56:55.280Z,4.93
2022-11-15T06:57:55.276Z,4.89
2022-11-15T06:58:55.291Z,4.97
2022-11-15T06:59:55.571Z,4.87
2022-11-15T07:00:56.015Z,4.9
2022-11-15T07:01:55.384Z,4.86
2022-11-15T07:02:55.828Z,4.78
2022-11-15T07:03:55.602Z,4.86
2022-11-15T07:04:55.332Z,4.94
2022-11-15T07:05:55.327Z,4.86
2022-11-15T07:06:55.735Z,4.87
2022-11-15T07:07:55.594Z,4.89
2022-11-15T07:08:55.349Z,4.82
2022-11-15T07:09:55.371Z,4.9
2022-11-15T07:10:55.353Z,4.9
2022-11-15T07:11:55.362Z,4.92
2022-11-15T07:12:55.595Z,4.92
2022-11-15T07:13:55.623Z,4.94
2022-11-15T07:14:56.231Z,4.89
2022-11-15T07:15:56.227Z,4.93
2022-11-15T07:16:55.966Z,4.97
2022-11-15T07:17:56.062Z,4.99
2022-11-15T07:18:55.719Z,5.05
2022-11-15T07:19:55.509Z,4.99
2022-11-15T07:20:55.675Z,4.99
2022-11-15T07:21:55.675Z,5.02
2022-11-15T07:22:55.409Z,5.02
2022-11-15T07:23:55.402Z,5.07
2022-11-15T07:24:55.841Z,5.12
2022-11-15T07:25:55.856Z,5.15
2022-11-15T07:26:55.831Z,5.26
2022-11-15T07:27:56.324Z,5.23
2022-11-15T07:28:55.948Z,5.25
2022-11-15T07:29:55.678Z,5.3
2022-11-15T07:30:55.475Z,5.46
2022-11-15T07:31:55.500Z,5.39
2022-11-15T07:32:56.193Z,5.54
2022-11-15T07:33:55.519Z,5.56
2022-11-15T07:34:55.754Z,5.54
2022-11-15T07:35:55.734Z,5.71
2022-11-15T07:36:55.803Z,5.76
2022-11-15T07:37:55.637Z,5.84
2022-11-15T07:38:55.610Z,5.91
2022-11-15T07:39:55.884Z,5.99
2022-11-15T07:40:55.711Z,6.28
2022-11-15T07:41:55.790Z,6.52
2022-11-15T07:42:55.548Z,6.57
2022-11-15T07:43:55.782Z,6.66
2022-11-15T07:44:55.998Z,6.77
2022-11-15T07:46:02.441Z,6.84
2022-11-15T07:46:55.788Z,6.84
2022-11-15T07:47:55.827Z,6.82
2022-11-15T07:48:57.027Z,6.95
2022-11-15T07:49:55.833Z,7.13
2022-11-15T07:50:55.571Z,7.17
2022-11-15T07:51:55.596Z,7.25
2022-11-15T07:52:55.674Z,7.36
2022-11-15T07:53:55.859Z,7.51
2022-11-15T07:54:55.674Z,7.57
2022-11-15T07:55:55.853Z,7.54
2022-11-15T07:56:55.893Z,7.57
2022-11-15T07:57:55.633Z,7.66
2022-11-15T07:58:55.602Z,7.77
2022-11-15T07:59:57.186Z,7.8
2022-11-15T08:00:56.255Z,7.83
2022-11-15T08:01:56.199Z,7.97
2022-11-15T08:02:56.465Z,7.94
2022-11-15T08:03:55.900Z,7.97
2022-11-15T08:04:56.463Z,8.03
2022-11-15T08:05:55.956Z,8.03
2022-11-15T08:06:56.645Z,8.09
2022-11-15T08:07:57.427Z,8.12
2022-11-15T08:08:55.907Z,8.2
2022-11-15T08:09:55.717Z,8.28
2022-11-15T08:10:55.731Z,8.2
2022-11-15T08:11:55.718Z,8.26
2022-11-15T08:12:56.475Z,8.3
2022-11-15T08:13:55.719Z,8.28
2022-11-15T08:14:56.342Z,8.36
2022-11-15T08:16:02.371Z,8.36
2022-11-15T08:16:56.297Z,8.46
2022-11-15T08:17:56.015Z,8.55
2022-11-15T08:18:55.770Z,8.55
2022-11-15T08:19:55.784Z,8.53
2022-11-15T08:20:57.151Z,8.63
2022-11-15T08:21:55.786Z,8.64
2022-11-15T08:22:55.800Z,8.67
2022-11-15T08:23:55.796Z,8.66
2022-11-15T08:24:56.451Z,8.78
2022-11-15T08:25:55.811Z,8.79
2022-11-15T08:26:56.244Z,8.89
2022-11-15T08:27:56.111Z,8.81
2022-11-15T08:28:55.843Z,8.78
2022-11-15T08:30:01.827Z,8.88
2022-11-15T08:30:56.716Z,8.92
2022-11-15T08:31:55.906Z,9.02
2022-11-15T08:32:55.971Z,9.06
2022-11-15T08:33:56.401Z,9.14
2022-11-15T08:34:56.139Z,9.13
2022-11-15T08:35:56.425Z,9.25
2022-11-15T08:36:56.560Z,9.32
2022-11-15T08:37:56.034Z,9.32
2022-11-15T08:38:55.997Z,9.37
2022-11-15T08:39:56.445Z,9.46
2022-11-15T08:40:55.937Z,9.48
2022-11-15T08:41:55.950Z,9.59
2022-11-15T08:42:55.958Z,9.65
2022-11-15T08:43:55.955Z,9.76
2022-11-15T08:44:56.361Z,9.77
2022-11-15T08:45:56.364Z,9.84
2022-11-15T08:46:56.826Z,9.82
2022-11-15T08:47:59.243Z,9.97
2022-11-15T08:48:56.308Z,9.94
2022-11-15T08:49:56.035Z,10.07
2022-11-15T08:50:56.177Z,10.15
2022-11-15T08:51:56.051Z,10.17
2022-11-15T08:52:56.704Z,10.3
2022-11-15T08:53:56.074Z,10.35
2022-11-15T08:54:56.992Z,10.44
2022-11-15T08:55:56.072Z,10.48
2022-11-15T08:56:56.103Z,10.51
2022-11-15T08:57:56.105Z,10.51
2022-11-15T08:58:56.077Z,10.63
2022-11-15T08:59:56.972Z,10.78
2022-11-15T09:00:56.391Z,10.78
2022-11-15T09:01:56.374Z,10.89
2022-11-15T09:02:56.143Z,10.87
2022-11-15T09:03:56.198Z,10.96
2022-11-15T09:04:56.401Z,11.04
2022-11-15T09:05:56.779Z,11.11
2022-11-15T09:06:56.341Z,11.15
2022-11-15T09:07:56.427Z,11.19
2022-11-15T09:08:57.154Z,11.27
2022-11-15T09:09:56.213Z,11.4
2022-11-15T09:10:56.206Z,11.43
2022-11-15T09:12:03.224Z,11.5
2022-11-15T09:12:56.499Z,11.51
2022-11-15T09:13:56.632Z,11.65
2022-11-15T09:14:56.886Z,11.73
2022-11-15T09:15:57.209Z,11.77
2022-11-15T09:16:56.314Z,11.83
2022-11-15T09:17:56.310Z,11.91
2022-11-15T09:18:56.745Z,11.94
2022-11-15T09:19:56.311Z,11.91
2022-11-15T09:20:56.854Z,12.02
2022-11-15T09:21:56.561Z,12
2022-11-15T09:22:56.585Z,12.09
2022-11-15T09:23:56.361Z,12.13
2022-11-15T09:24:56.983Z,12.15
2022-11-15T09:25:56.419Z,12.22
2022-11-15T09:26:56.456Z,12.28
2022-11-15T09:27:56.658Z,12.29
2022-11-15T09:28:56.467Z,12.35
2022-11-15T09:29:56.670Z,12.39
2022-11-15T09:30:56.661Z,12.43
2022-11-15T09:31:56.707Z,12.45
2022-11-15T09:32:56.420Z,12.43
2022-11-15T09:33:56.750Z,12.39
2022-11-15T09:34:56.489Z,12.57
2022-11-15T09:35:56.544Z,12.53
2022-11-15T09:36:56.574Z,12.54
2022-11-15T09:38:00.604Z,12.65
2022-11-15T09:38:56.741Z,12.64
2022-11-15T09:39:56.798Z,12.73
2022-11-15T09:40:57.113Z,12.78
2022-11-15T09:41:56.521Z,12.78
2022-11-15T09:42:56.798Z,12.8
2022-11-15T09:43:56.571Z,12.85
2022-11-15T09:44:56.581Z,12.94
2022-11-15T09:45:56.603Z,12.94
2022-11-15T09:46:56.589Z,12.9
2022-11-15T09:47:57.894Z,12.97
2022-11-15T09:48:57.219Z,13.03
2022-11-15T09:50:01.309Z,13.04
2022-11-15T09:50:57.357Z,13.05
2022-11-15T09:51:56.764Z,13.09
2022-11-15T09:52:57.490Z,13.22
2022-11-15T09:54:55.428Z,13.31
2022-11-15T09:55:04.646Z,13.3
2022-11-15T09:56:05.288Z,13.33
2022-11-15T09:57:04.935Z,13.39
2022-11-15T09:58:04.687Z,13.42
2022-11-15T09:59:04.957Z,13.49
2022-11-15T10:00:52.019Z,13.57
2022-11-15T10:01:04.973Z,13.6
2022-11-15T10:02:04.960Z,13.68
2022-11-15T10:03:04.838Z,13.67
2022-11-15T10:04:11.738Z,13.77
2022-11-15T10:05:05.051Z,13.79
2022-11-15T10:06:04.877Z,13.93
2022-11-15T10:07:05.535Z,13.89
2022-11-15T10:08:04.824Z,13.93
2022-11-15T10:09:05.012Z,13.96
2022-11-15T10:10:05.475Z,13.96
2022-11-15T10:11:42.135Z,14.11
2022-11-15T10:12:05.799Z,14.07
2022-11-15T10:13:05.394Z,14.08
2022-11-15T10:14:04.892Z,14.14
2022-11-15T10:15:05.177Z,14.18
2022-11-15T10:16:05.438Z,14.26
2022-11-15T10:17:04.925Z,14.22
2022-11-15T10:18:04.933Z,14.2
2022-11-15T10:19:05.405Z,14.26
2022-11-15T10:20:10.445Z,14.28
2022-11-15T10:21:06.093Z,14.22
2022-11-15T10:22:05.294Z,14.28
2022-11-15T10:23:05.754Z,14.28
2022-11-15T10:24:05.369Z,14.33
2022-11-15T10:25:05.308Z,14.32
2022-11-15T10:26:11.283Z,14.35
2022-11-15T10:27:05.605Z,14.35
2022-11-15T10:28:05.363Z,14.45
2022-11-15T10:29:05.596Z,14.45
2022-11-15T10:30:05.784Z,14.51
2022-11-15T10:31:05.371Z,14.53
2022-11-15T10:32:05.515Z,14.62
2022-11-15T10:33:05.119Z,14.6
2022-11-15T10:34:05.388Z,14.63
2022-11-15T10:35:05.395Z,14.73
2022-11-15T10:36:05.151Z,14.68
2022-11-15T10:37:05.635Z,14.7
2022-11-15T10:38:05.492Z,14.78
2022-11-15T10:39:05.446Z,14.86
2022-11-15T10:40:05.217Z,14.89
2022-11-15T10:41:06.700Z,14.91
2022-11-15T10:42:17.852Z,14.94
2022-11-15T10:43:05.243Z,14.86
2022-11-15T10:44:05.820Z,14.81
2022-11-15T10:45:05.536Z,14.85
